Weather at Ngurah Rai (Bali) International Airport

Public forecast

Using degrees Celsius for public forecast. Weather courtesy of forecast.io.

Current aviation weather report (METAR) for Ngurah Rai (Bali) International Airport

Report is more than 6 hours old.

2022/11/14 15:00 (retrieved 2 years ago)

WADD 141500Z VRB01KT 9999 FEW017 28/26 Q1009 NOSIG

Aviation forecast (TAF) for Ngurah Rai (Bali) International Airport

Forecast is more than 12 hours old.

2023/02/22 18:12 Ammendment (retrieved 1 year ago)

TAF AMD TAF AMD WADD 221750Z 2218/2318 27010KT 9999 SCT016 TEMPO 2218/2300 4000 RA FEW014CB BKN014 TEMPO 2304/2308 FEW015CB